Terminal Aerodrome Forecast
Issued by NWS Rapid City, SD

Home | Current Version | Previous Version | Text Only | Print | Product List | Glossary Off
Versions: 1 2 3 4 5 6 7 8 9 10 11 12 13 14 15 16 17 18 19

000
FTUS43 KUNR 291121
TAFRAP
TAF
KRAP 291121Z 2912/3012 31008KT P6SM SCT250
     FM291500 36006KT P6SM BKN250
     FM291900 04010KT P6SM SCT250
     FM300600 32004KT P6SM FEW250=

USA.gov is the U.S. government's official web portal to all federal, state and local government web resources and services.